Time;durP1;ratioP1;P1;durP2;ratioP2;P2;SDS_P1;SDS_P2;PMS_P1;PMS_P2;Temp;Humidity;BMP_temperature;BMP_pressure;BME280_temperature;BME280_humidity;BME280_pressure;Samples;Min_cycle;Max_cycle;Signal;HPM_P1;HPM_P2
2023/08/15 00:00:43;;;;;;;8.43;7.10;;;;;;;22.04;66.30;97843.50;10333095;28;20056;-52
2023/08/15 00:05:42;;;;;;;8.75;7.85;;;;;;;22.29;66.98;97896.94;10330607;28;20077;-53
2023/08/15 00:10:41;;;;;;;9.23;8.20;;;;;;;22.15;68.05;97889.66;10327269;28;20109;-51
2023/08/15 00:15:40;;;;;;;10.85;8.48;;;;;;;22.11;68.44;97887.25;10329555;28;20072;-50
2023/08/15 00:20:39;;;;;;;11.05;7.57;;;;;;;22.09;68.36;97889.09;10329994;28;20086;-51
2023/08/15 00:25:38;;;;;;;10.68;7.97;;;;;;;21.89;68.38;97861.72;10329176;28;20120;-50
2023/08/15 00:30:37;;;;;;;9.07;7.88;;;;;;;21.94;68.77;97870.34;10329818;28;20052;-52
2023/08/15 00:35:36;;;;;;;11.90;8.93;;;;;;;21.89;69.74;97889.94;10328768;28;20078;-49
2023/08/15 00:40:39;;;;;;;10.75;8.80;;;;;;;21.74;71.79;97884.41;10329803;28;20041;-51
2023/08/15 00:45:39;;;;;;;11.15;9.60;;;;;;;21.63;72.17;97885.81;10326947;28;20026;-51
2023/08/15 00:50:41;;;;;;;10.30;8.75;;;;;;;21.51;73.21;97877.50;10328038;28;20468;-51
2023/08/15 00:55:41;;;;;;;11.18;9.35;;;;;;;21.43;73.64;97881.38;10327839;28;20529;-50
2023/08/15 01:00:42;;;;;;;10.75;9.25;;;;;;;21.33;74.17;97862.44;10325269;28;20056;-51
2023/08/15 01:05:42;;;;;;;11.85;9.32;;;;;;;21.31;74.35;97864.28;10326036;28;20449;-51
2023/08/15 01:10:43;;;;;;;10.68;8.43;;;;;;;21.26;74.13;97858.34;10324778;28;20060;-52
2023/08/15 01:15:51;;;;;;;11.73;8.85;;;;;;;21.29;74.02;97866.16;10322979;28;20061;-51
2023/08/15 01:20:53;;;;;;;11.60;8.88;;;;;;;21.29;73.92;97866.16;10325410;28;20053;-52
2023/08/15 01:25:55;;;;;;;10.82;8.63;;;;;;;21.17;73.93;97877.19;10323514;28;20061;-52
2023/08/15 01:31:19;;;;;;;9.63;7.53;;;;;;;20.88;73.25;97851.09;10324337;28;20496;-49
2023/08/15 01:36:32;;;;;;;8.77;7.88;;;;;;;21.01;72.79;97876.94;10326985;28;20108;-50
2023/08/15 01:41:39;;;;;;;9.07;7.75;;;;;;;20.84;72.64;97857.41;10322472;28;20128;-49
2023/08/15 01:46:38;;;;;;;11.10;7.78;;;;;;;20.98;72.51;97882.38;10322476;28;20063;-50
2023/08/15 01:51:37;;;;;;;11.07;8.48;;;;;;;20.95;72.14;97878.06;10322763;28;20057;-51
2023/08/15 01:56:36;;;;;;;9.52;7.50;;;;;;;20.97;71.53;97870.97;10322601;28;20067;-49
2023/08/15 02:01:35;;;;;;;11.10;7.47;;;;;;;20.98;70.83;97864.75;10322695;28;20037;-50
2023/08/15 02:06:34;;;;;;;10.10;7.72;;;;;;;20.95;70.08;97869.31;10324355;28;20120;-50
2023/08/15 02:11:33;;;;;;;9.00;7.57;;;;;;;20.70;69.44;97826.34;10322400;28;20127;-51
2023/08/15 02:16:32;;;;;;;11.38;7.35;;;;;;;20.91;68.90;97866.81;10321116;28;20033;-49
2023/08/15 02:21:31;;;;;;;9.95;8.18;;;;;;;20.53;69.72;97812.13;10324934;28;20045;-52
2023/08/15 02:26:30;;;;;;;10.20;7.70;;;;;;;20.74;71.15;97853.44;10322993;28;20029;-52
2023/08/15 02:31:30;;;;;;;11.50;8.13;;;;;;;20.79;70.20;97866.44;10324465;28;20777;-52
2023/08/15 02:36:29;;;;;;;11.82;8.32;;;;;;;20.68;71.56;97864.22;10323392;28;20056;-50
2023/08/15 02:41:28;;;;;;;13.32;8.98;;;;;;;20.49;73.12;97864.09;10322804;28;20128;-51
2023/08/15 02:46:28;;;;;;;12.82;9.00;;;;;;;20.49;74.32;97870.25;10321676;28;20128;-50
2023/08/15 02:51:27;;;;;;;18.08;9.20;;;;;;;20.64;75.30;97871.41;10320334;28;20072;-52
2023/08/15 02:56:26;;;;;;;14.82;9.90;;;;;;;20.70;75.04;97863.25;10327792;28;20108;-51
2023/08/15 03:01:25;;;;;;;11.25;8.82;;;;;;;20.76;75.26;97870.06;10330843;28;20038;-51
2023/08/15 03:06:24;;;;;;;12.93;8.32;;;;;;;20.75;74.55;97889.44;10334114;28;20487;-51
2023/08/15 03:11:23;;;;;;;11.75;7.88;;;;;;;20.80;73.39;97884.84;10330940;28;20069;-50
2023/08/15 03:16:22;;;;;;;9.30;6.85;;;;;;;20.80;70.88;97884.00;10331178;28;20033;-49
2023/08/15 03:21:21;;;;;;;9.40;6.97;;;;;;;20.84;70.50;97896.97;10329800;28;20075;-52
2023/08/15 03:26:20;;;;;;;8.18;6.55;;;;;;;20.90;68.76;97890.59;10332755;28;20045;-52
2023/08/15 03:31:21;;;;;;;12.68;7.72;;;;;;;20.88;67.93;97877.47;10332462;28;20120;-51
2023/08/15 03:36:20;;;;;;;44.75;40.15;;;;;;;20.96;68.37;97900.91;10332142;28;20077;-52
2023/08/15 03:41:19;;;;;;;25.35;20.00;;;;;;;20.90;68.86;97890.59;10331526;28;20401;-52
2023/08/15 03:46:19;;;;;;;21.20;17.55;;;;;;;20.90;69.53;97896.72;10333668;28;20385;-51
2023/08/15 03:51:18;;;;;;;17.75;14.57;;;;;;;20.89;70.07;97900.31;10330916;28;20065;-51
2023/08/15 03:56:17;;;;;;;17.35;13.98;;;;;;;20.95;71.79;97888.63;10329739;28;20032;-52
2023/08/15 04:01:16;;;;;;;16.48;13.98;;;;;;;20.98;73.08;97906.97;10330469;28;20060;-52
2023/08/15 04:06:15;;;;;;;19.73;13.55;;;;;;;20.98;73.95;97920.16;10329243;28;20131;-52
2023/08/15 04:11:14;;;;;;;15.18;11.02;;;;;;;20.95;75.01;97917.66;10326229;28;20070;-52
2023/08/15 04:16:12;;;;;;;11.38;9.70;;;;;;;20.92;75.21;97925.69;10327443;28;20136;-51
2023/08/15 04:21:12;;;;;;;11.63;8.05;;;;;;;20.91;72.45;97945.06;10326057;28;20116;-50
2023/08/15 04:26:11;;;;;;;9.77;8.50;;;;;;;20.73;70.58;97919.41;10327446;28;20134;-52
2023/08/15 04:31:10;;;;;;;12.93;8.15;;;;;;;20.66;71.16;97939.91;10326851;28;20072;-51
2023/08/15 04:36:09;;;;;;;12.90;8.25;;;;;;;20.53;72.01;97931.59;10325195;28;20510;-51
2023/08/15 04:41:08;;;;;;;11.85;8.48;;;;;;;20.45;72.73;97960.03;10326742;28;20116;-51
2023/08/15 04:46:07;;;;;;;12.63;8.73;;;;;;;20.36;74.17;97977.03;10324864;28;20021;-50
2023/08/15 04:51:05;;;;;;;11.18;8.15;;;;;;;20.10;70.54;97963.94;10324712;28;20116;-49
2023/08/15 04:56:05;;;;;;;17.65;8.63;;;;;;;19.97;71.46;97979.31;10323990;28;20040;-51
2023/08/15 05:01:05;;;;;;;10.25;7.90;;;;;;;19.52;72.25;97912.38;10324616;28;20072;-49
2023/08/15 05:06:04;;;;;;;11.18;8.27;;;;;;;19.92;74.34;97963.69;10324651;28;20069;-50
2023/08/15 05:11:03;;;;;;;10.93;9.13;;;;;;;19.93;76.19;97980.31;10325283;28;20035;-49
2023/08/15 05:16:02;;;;;;;13.93;9.48;;;;;;;19.90;76.50;97946.22;10325303;28;20125;-48
2023/08/15 05:21:01;;;;;;;15.80;10.75;;;;;;;20.37;77.46;97984.00;10323804;28;20067;-49
2023/08/15 05:26:00;;;;;;;13.23;10.27;;;;;;;20.53;77.33;97989.59;10322501;28;20072;-49
2023/08/15 05:31:00;;;;;;;16.13;10.52;;;;;;;20.77;77.68;97998.34;10325755;28;20144;-50
2023/08/15 05:35:59;;;;;;;13.38;9.15;;;;;;;20.99;75.59;97987.00;10316807;28;20034;-48
2023/08/15 05:40:58;;;;;;;14.73;9.45;;;;;;;21.08;75.51;97999.81;10324120;28;20558;-49
2023/08/15 05:45:57;;;;;;;13.25;10.02;;;;;;;21.21;74.68;98001.06;10322059;28;20057;-51
2023/08/15 05:50:56;;;;;;;11.95;9.00;;;;;;;21.36;73.44;97996.09;10318107;28;20707;-51
2023/08/15 05:55:55;;;;;;;11.65;7.97;;;;;;;21.43;70.62;97998.44;10320501;28;20836;-50
2023/08/15 06:00:54;;;;;;;16.17;8.55;;;;;;;21.67;69.48;97991.25;10321043;28;20120;-51
2023/08/15 06:05:56;;;;;;;11.75;7.93;;;;;;;21.61;67.65;97996.78;10326480;28;20513;-53
2023/08/15 06:10:55;;;;;;;10.93;8.05;;;;;;;21.52;67.36;97982.22;10323141;28;20063;-51
2023/08/15 06:15:54;;;;;;;13.00;8.27;;;;;;;21.73;68.03;97988.38;10324244;28;20072;-53
2023/08/15 06:20:53;;;;;;;10.90;8.00;;;;;;;22.19;67.74;97985.53;10324553;28;20025;-51
2023/08/15 06:25:52;;;;;;;16.73;8.50;;;;;;;22.56;64.32;97973.31;10325467;28;20105;-52
2023/08/15 06:30:51;;;;;;;12.88;7.90;;;;;;;22.96;61.68;97982.06;10328193;28;20539;-52
2023/08/15 06:35:50;;;;;;;12.00;7.38;;;;;;;23.04;58.44;97984.31;10332779;28;20061;-50
2023/08/15 06:40:49;;;;;;;9.88;6.70;;;;;;;22.91;56.41;97984.06;10332959;28;20060;-49
2023/08/15 06:45:48;;;;;;;8.77;6.85;;;;;;;23.06;56.44;97988.63;10329888;28;20044;-50
2023/08/15 06:50:47;;;;;;;13.32;7.10;;;;;;;23.35;55.51;97991.63;10332900;28;20112;-50
2023/08/15 06:55:49;;;;;;;12.48;7.75;;;;;;;23.61;56.19;97995.69;10332839;28;20046;-51
2023/08/15 07:00:48;;;;;;;9.95;7.03;;;;;;;23.87;53.55;97994.38;10330132;28;20061;-52
2023/08/15 07:05:47;;;;;;;21.20;9.85;;;;;;;23.87;53.45;97997.03;10329879;28;20137;-52
2023/08/15 07:10:46;;;;;;;10.65;7.03;;;;;;;23.87;52.20;97998.81;10328912;28;20103;-49
2023/08/15 07:15:45;;;;;;;10.88;7.20;;;;;;;23.52;51.80;97997.00;10327950;28;20021;-51
2023/08/15 07:20:44;;;;;;;11.18;6.90;;;;;;;23.36;49.59;97993.38;10329526;28;20032;-52
2023/08/15 07:25:44;;;;;;;10.27;6.55;;;;;;;23.08;49.46;97989.41;10328232;28;20132;-51
2023/08/15 07:30:45;;;;;;;8.43;6.68;;;;;;;22.87;50.90;98001.88;10330985;28;20207;-51
2023/08/15 07:35:44;;;;;;;7.65;6.32;;;;;;;22.92;48.53;97994.56;10330622;28;20061;-51
2023/08/15 07:40:43;;;;;;;10.30;6.35;;;;;;;22.98;49.63;98004.03;10330282;28;20096;-49
2023/08/15 07:45:42;;;;;;;10.13;7.07;;;;;;;23.43;49.92;97997.44;10324285;28;20060;-51
2023/08/15 07:50:41;;;;;;;9.35;6.43;;;;;;;23.72;48.27;98009.25;10328444;28;20033;-50
2023/08/15 07:55:40;;;;;;;10.88;7.13;;;;;;;23.76;48.10;98004.66;10326465;28;20075;-50
2023/08/15 08:00:41;;;;;;;9.63;6.53;;;;;;;23.85;47.63;98005.03;10325558;28;20033;-50
2023/08/15 08:05:40;;;;;;;11.45;6.10;;;;;;;23.83;48.32;97984.84;10326910;28;20101;-51
2023/08/15 08:10:39;;;;;;;11.00;6.43;;;;;;;23.50;49.75;97988.28;10322500;28;20044;-52
2023/08/15 08:15:38;;;;;;;10.38;7.65;;;;;;;23.15;50.65;97988.19;10325014;28;20516;-51
2023/08/15 08:20:39;;;;;;;11.02;6.90;;;;;;;23.50;50.16;97984.78;10322525;28;20061;-52
2023/08/15 08:25:39;;;;;;;11.48;6.85;;;;;;;23.64;49.64;97996.38;10321484;28;20121;-52
2023/08/15 08:30:38;;;;;;;9.23;6.95;;;;;;;23.86;51.10;97990.00;10322384;28;20133;-50
2023/08/15 08:35:37;;;;;;;11.23;6.90;;;;;;;23.68;50.32;97980.31;10322208;28;20029;-50
2023/08/15 08:40:36;;;;;;;10.35;7.13;;;;;;;23.39;50.06;97964.91;10322237;28;20056;-54
2023/08/15 08:45:40;;;;;;;8.25;6.97;;;;;;;23.21;50.64;97982.59;10322609;28;20475;-52
2023/08/15 08:50:39;;;;;;;9.35;6.40;;;;;;;23.11;52.33;98001.63;10319679;28;20310;-51
2023/08/15 08:55:40;;;;;;;9.95;6.65;;;;;;;22.90;52.57;97987.63;10320822;28;20063;-51
2023/08/15 09:00:40;;;;;;;11.45;7.15;;;;;;;23.13;50.33;97992.69;10319936;28;20076;-50
2023/08/15 09:05:41;;;;;;;11.20;6.80;;;;;;;23.12;50.26;97995.41;10318458;28;20536;-51
2023/08/15 09:10:40;;;;;;;8.63;6.72;;;;;;;23.20;50.57;98007.34;10318701;28;20073;-50
2023/08/15 09:15:40;;;;;;;9.40;6.55;;;;;;;23.11;50.76;97997.19;10318080;28;20069;-51
2023/08/15 09:20:48;;;;;;;9.80;7.70;;;;;;;22.65;50.54;97912.03;10320401;28;20541;-52
2023/08/15 09:25:48;;;;;;;9.57;6.97;;;;;;;23.12;51.30;97998.91;10319302;28;20478;-50
2023/08/15 09:30:54;;;;;;;10.68;7.35;;;;;;;23.33;50.97;98002.31;10319178;28;20180;-51
2023/08/15 09:35:54;;;;;;;9.73;6.93;;;;;;;23.08;51.30;97949.69;10318078;28;20065;-49
2023/08/15 09:40:53;;;;;;;10.00;7.32;;;;;;;23.31;51.21;97969.75;10320455;28;20464;-50
2023/08/15 09:45:53;;;;;;;9.30;7.57;;;;;;;23.39;51.50;97979.97;10322143;28;20697;-51
2023/08/15 09:50:54;;;;;;;9.55;7.47;;;;;;;23.43;52.41;97986.84;10316578;28;20144;-50
2023/08/15 09:55:53;;;;;;;12.05;6.95;;;;;;;23.53;51.33;97988.13;10318840;28;20140;-51
2023/08/15 10:00:54;;;;;;;10.68;7.63;;;;;;;23.47;51.42;97977.84;10319914;28;20120;-51
2023/08/15 10:05:56;;;;;;;10.98;7.05;;;;;;;23.53;51.70;97980.16;10330422;28;20069;-51
2023/08/15 10:10:58;;;;;;;10.95;6.82;;;;;;;23.74;51.28;97977.38;10333904;28;20061;-52
2023/08/15 10:15:58;;;;;;;10.00;7.22;;;;;;;23.33;50.84;97935.28;10332263;28;20548;-52
2023/08/15 10:20:58;;;;;;;10.52;7.40;;;;;;;23.27;50.81;97985.88;10339708;28;20077;-51
2023/08/15 10:25:58;;;;;;;10.70;7.80;;;;;;;22.98;51.57;97990.78;10335442;28;20120;-50
2023/08/15 10:30:57;;;;;;;12.60;8.55;;;;;;;22.68;52.32;97988.59;10333524;28;20527;-51
2023/08/15 10:35:56;;;;;;;14.07;8.93;;;;;;;22.51;53.18;97992.03;10336798;28;20833;-50
2023/08/15 10:41:07;;;;;;;9.98;7.57;;;;;;;22.44;53.29;97995.03;10334044;28;20049;-52
2023/08/15 10:46:06;;;;;;;8.77;7.75;;;;;;;22.32;53.31;98005.22;10336099;28;20472;-52
2023/08/15 10:51:18;;;;;;;12.13;7.45;;;;;;;22.21;53.91;97998.69;10341457;28;20749;-52
2023/08/15 10:56:19;;;;;;;11.63;7.78;;;;;;;22.13;54.00;97991.09;10334536;28;20125;-52
2023/08/15 11:01:19;;;;;;;13.73;8.30;;;;;;;21.83;54.66;97975.63;10332046;28;20132;-52
2023/08/15 11:06:19;;;;;;;11.57;7.72;;;;;;;22.09;54.70;98008.03;10340554;28;20092;-48
2023/08/15 11:11:18;;;;;;;14.02;7.97;;;;;;;21.95;54.58;98009.44;10340334;28;20167;-51
2023/08/15 11:16:19;;;;;;;11.45;7.72;;;;;;;22.07;54.60;97996.66;10331012;28;20069;-48
2023/08/15 11:21:18;;;;;;;12.10;7.90;;;;;;;22.34;54.28;97994.56;10325506;28;20504;-51
2023/08/15 11:26:18;;;;;;;8.77;7.28;;;;;;;22.43;53.71;97995.94;10327398;28;20060;-49
2023/08/15 11:31:17;;;;;;;11.40;8.15;;;;;;;22.56;53.15;97983.88;10323879;28;20136;-53
2023/08/15 11:36:16;;;;;;;10.75;8.57;;;;;;;22.54;53.47;97994.53;10332013;28;20120;-49
2023/08/15 11:41:16;;;;;;;11.80;8.07;;;;;;;22.63;53.66;97987.13;10331874;28;20065;-51
2023/08/15 11:46:15;;;;;;;12.40;8.43;;;;;;;22.59;53.97;97984.59;10327022;28;20060;-52
2023/08/15 11:51:21;;;;;;;18.48;14.73;;;;;;;22.66;53.49;97989.59;10330785;28;20116;-52
2023/08/15 11:56:20;;;;;;;12.30;8.35;;;;;;;22.60;53.55;97990.75;10330719;28;20049;-51
2023/08/15 12:01:22;;;;;;;12.30;8.93;;;;;;;22.62;53.91;97991.53;10330057;28;20101;-51
2023/08/15 12:06:21;;;;;;;12.27;8.55;;;;;;;22.75;53.73;97990.06;10329166;28;20084;-51
2023/08/15 12:11:21;;;;;;;13.32;9.48;;;;;;;22.83;54.08;97980.91;10328587;28;20033;-50
2023/08/15 12:16:20;;;;;;;17.05;12.65;;;;;;;22.94;54.37;97990.06;10328109;28;20061;-50
2023/08/15 12:21:19;;;;;;;12.27;8.55;;;;;;;22.93;53.61;97979.56;10329684;28;20029;-52
2023/08/15 12:26:18;;;;;;;10.73;7.80;;;;;;;22.94;53.47;97976.81;10326421;28;20148;-52
2023/08/15 12:31:17;;;;;;;11.38;8.57;;;;;;;23.01;53.33;97977.41;10328545;28;20548;-49
2023/08/15 12:36:16;;;;;;;11.63;8.32;;;;;;;23.27;53.73;97968.19;10329275;28;20544;-52
2023/08/15 12:41:15;;;;;;;11.57;8.13;;;;;;;23.46;53.82;97970.78;10323485;28;20073;-52
2023/08/15 12:46:14;;;;;;;10.98;8.05;;;;;;;23.58;54.07;97959.63;10323280;28;20606;-49
2023/08/15 12:51:14;;;;;;;9.93;7.80;;;;;;;23.68;54.07;97953.81;10328455;28;20044;-51
2023/08/15 12:56:13;;;;;;;9.98;8.50;;;;;;;23.81;52.79;97958.44;10325555;28;20591;-48
2023/08/15 13:01:12;;;;;;;9.73;7.95;;;;;;;23.69;51.74;97950.25;10326670;28;20167;-53
2023/08/15 13:06:11;;;;;;;10.63;7.88;;;;;;;23.71;51.59;97959.00;10324389;28;20064;-50
2023/08/15 13:11:10;;;;;;;12.93;8.10;;;;;;;23.77;51.69;97959.53;10325644;28;20117;-51
2023/08/15 13:16:09;;;;;;;10.43;7.95;;;;;;;23.86;52.02;97963.50;10324271;28;20108;-53
2023/08/15 13:21:08;;;;;;;9.93;8.27;;;;;;;23.73;51.76;97915.59;10323504;28;20121;-52
2023/08/15 13:26:07;;;;;;;10.85;7.93;;;;;;;24.04;51.48;97941.34;10323739;28;20075;-52
2023/08/15 13:31:06;;;;;;;12.38;8.10;;;;;;;24.30;51.83;97932.97;10325464;28;20045;-52
2023/08/15 13:36:05;;;;;;;10.52;8.00;;;;;;;24.51;51.24;97923.00;10323231;28;20065;-51
2023/08/15 13:41:04;;;;;;;12.82;7.82;;;;;;;24.61;50.73;97927.69;10320282;28;20072;-51
2023/08/15 13:46:07;;;;;;;27.17;19.95;;;;;;;24.77;50.37;97919.72;10320240;28;20060;-48
2023/08/15 13:51:17;;;;;;;16.77;11.52;;;;;;;25.06;50.66;97925.25;10323464;28;20068;-51
2023/08/15 13:56:17;;;;;;;10.13;8.00;;;;;;;25.24;49.49;97924.16;10320407;28;20057;-51
2023/08/15 14:01:16;;;;;;;11.35;8.55;;;;;;;25.28;49.11;97923.03;10318934;28;20184;-49
2023/08/15 14:06:15;;;;;;;11.32;8.38;;;;;;;25.24;49.13;97915.34;10322114;28;20490;-52
2023/08/15 14:11:14;;;;;;;10.23;8.52;;;;;;;25.29;49.30;97906.19;10319646;28;20411;-51
2023/08/15 14:16:13;;;;;;;12.02;8.75;;;;;;;25.44;49.52;97904.41;10324691;28;20040;-52
2023/08/15 14:21:12;;;;;;;11.48;8.82;;;;;;;25.57;48.35;97904.56;10320976;28;20036;-52
2023/08/15 14:26:11;;;;;;;11.85;8.50;;;;;;;25.70;48.21;97907.34;10319136;28;20026;-50
2023/08/15 14:31:10;;;;;;;11.18;8.63;;;;;;;25.89;47.61;97902.63;10318884;28;20124;-52
2023/08/15 14:36:09;;;;;;;10.40;8.68;;;;;;;25.92;47.66;97904.25;10324353;28;20104;-50
2023/08/15 14:41:07;;;;;;;11.32;8.68;;;;;;;25.72;48.82;97871.75;10321033;28;20116;-55
2023/08/15 14:46:06;;;;;;;13.35;9.02;;;;;;;25.80;47.80;97894.34;10321371;28;20059;-52
2023/08/15 14:51:05;;;;;;;130.13;116.63;;;;;;;25.65;49.17;97881.06;10324758;28;20039;-50
2023/08/15 14:56:06;;;;;;;17.38;10.02;;;;;;;25.35;49.20;97840.34;10330940;28;20160;-48
2023/08/15 15:01:05;;;;;;;30.73;23.35;;;;;;;25.43;49.89;97876.13;10329726;28;20073;-52
2023/08/15 15:06:04;;;;;;;47.50;41.92;;;;;;;25.26;49.47;97871.81;10330632;28;20061;-51
2023/08/15 15:11:03;;;;;;;11.75;9.10;;;;;;;25.23;49.94;97874.66;10327684;28;20472;-52
2023/08/15 15:16:02;;;;;;;12.43;9.02;;;;;;;25.14;49.84;97864.56;10329778;28;20469;-51
2023/08/15 15:21:01;;;;;;;11.98;9.25;;;;;;;25.05;50.33;97860.63;10327987;28;20105;-52
2023/08/15 15:26:01;;;;;;;10.52;9.15;;;;;;;24.80;50.26;97818.72;10328207;28;20144;-52
2023/08/15 15:31:00;;;;;;;15.85;9.43;;;;;;;24.93;49.69;97853.41;10327862;28;20073;-51
2023/08/15 15:35:59;;;;;;;13.57;9.68;;;;;;;24.84;50.21;97851.22;10330344;28;20044;-54
2023/08/15 15:40:58;;;;;;;74.88;65.93;;;;;;;24.76;50.61;97854.34;10325474;28;20026;-52
2023/08/15 15:45:57;;;;;;;35.60;31.80;;;;;;;24.65;50.83;97846.97;10329031;28;20033;-51
2023/08/15 15:50:56;;;;;;;13.18;10.15;;;;;;;24.24;51.62;97799.78;10326042;28;20475;-48
2023/08/15 15:55:55;;;;;;;12.32;9.95;;;;;;;24.35;52.03;97846.91;10322957;28;20061;-50
2023/08/15 16:00:58;;;;;;;13.73;10.05;;;;;;;24.30;51.44;97835.69;10321766;28;20029;-51
2023/08/15 16:05:57;;;;;;;14.65;9.93;;;;;;;24.23;52.27;97836.97;10328064;28;20547;-52
2023/08/15 16:10:56;;;;;;;16.90;10.13;;;;;;;24.12;52.84;97836.66;10323720;28;20384;-53
2023/08/15 16:15:55;;;;;;;14.30;9.50;;;;;;;23.99;54.08;97834.69;10324858;28;20072;-50
2023/08/15 16:20:54;;;;;;;12.05;9.43;;;;;;;23.83;53.65;97839.09;10328007;28;20065;-50
2023/08/15 16:25:53;;;;;;;336.20;282.08;;;;;;;23.70;55.14;97830.09;10327816;28;20029;-52
2023/08/15 16:30:52;;;;;;;32.17;24.67;;;;;;;23.57;56.37;97829.88;10327417;28;20026;-52
2023/08/15 16:35:52;;;;;;;13.48;10.82;;;;;;;23.44;56.97;97822.56;10322013;28;20060;-51
2023/08/15 16:40:50;;;;;;;15.85;12.30;;;;;;;23.31;57.43;97816.19;10325757;28;20118;-51
2023/08/15 16:45:49;;;;;;;16.80;11.15;;;;;;;23.17;58.43;97816.88;10324245;28;20117;-52
2023/08/15 16:50:48;;;;;;;15.65;11.90;;;;;;;23.07;59.14;97813.00;10324980;28;20013;-52
2023/08/15 16:55:47;;;;;;;15.63;11.95;;;;;;;22.98;59.61;97827.53;10321415;28;20036;-50
2023/08/15 17:00:46;;;;;;;17.33;13.00;;;;;;;22.83;60.60;97824.81;10318621;28;20025;-52
2023/08/15 17:05:45;;;;;;;16.55;12.27;;;;;;;22.75;61.34;97825.19;10320536;28;20128;-52
2023/08/15 17:10:44;;;;;;;21.55;16.23;;;;;;;22.58;62.16;97818.06;10319172;28;20982;-50
2023/08/15 17:15:45;;;;;;;22.98;16.00;;;;;;;22.45;62.85;97822.22;10320388;28;20091;-48
2023/08/15 17:20:44;;;;;;;21.88;16.48;;;;;;;22.24;63.26;97824.94;10319523;28;20116;-52
2023/08/15 17:25:43;;;;;;;21.02;15.52;;;;;;;22.11;64.35;97834.38;10321228;28;20033;-50
2023/08/15 17:30:42;;;;;;;20.30;15.43;;;;;;;21.99;64.40;97841.06;10320378;28;20128;-49
2023/08/15 17:35:42;;;;;;;16.48;12.85;;;;;;;21.90;64.99;97837.03;10318659;28;20108;-51
2023/08/15 17:40:41;;;;;;;19.85;13.38;;;;;;;21.78;65.72;97829.69;10319854;28;20083;-51
2023/08/15 17:45:40;;;;;;;17.80;13.38;;;;;;;21.66;66.30;97832.84;10320579;28;20072;-51
2023/08/15 17:50:39;;;;;;;17.05;13.02;;;;;;;21.52;66.96;97839.63;10321282;28;20481;-52
2023/08/15 17:55:38;;;;;;;17.05;13.25;;;;;;;21.32;67.05;97834.34;10321327;28;20422;-49
2023/08/15 18:00:37;;;;;;;16.80;13.85;;;;;;;21.23;67.58;97850.56;10317890;28;20037;-52
2023/08/15 18:05:36;;;;;;;17.42;12.75;;;;;;;20.71;68.07;97785.00;10319397;28;20037;-52
2023/08/15 18:10:35;;;;;;;18.55;13.73;;;;;;;21.00;68.66;97852.34;10319128;28;20045;-49
2023/08/15 18:15:34;;;;;;;19.92;13.63;;;;;;;20.83;69.48;97846.94;10319383;28;20029;-50
2023/08/15 18:20:33;;;;;;;18.60;14.32;;;;;;;20.67;70.27;97846.69;10320691;28;20032;-52
2023/08/15 18:25:32;;;;;;;16.50;14.25;;;;;;;20.54;70.82;97854.25;10321253;28;20833;-48
2023/08/15 18:30:32;;;;;;;17.10;13.50;;;;;;;20.20;71.28;97812.50;10326731;28;20485;-52
2023/08/15 18:35:31;;;;;;;17.25;12.85;;;;;;;20.39;71.77;97858.28;10328966;28;20120;-53
2023/08/15 18:40:30;;;;;;;15.38;12.43;;;;;;;20.33;72.16;97863.81;10328433;28;20040;-48
2023/08/15 18:45:29;;;;;;;17.27;13.88;;;;;;;20.29;72.03;97870.97;10329679;28;20040;-50
2023/08/15 18:50:28;;;;;;;17.05;14.00;;;;;;;20.21;72.84;97875.69;10324705;28;20029;-52
2023/08/15 18:55:26;;;;;;;20.83;14.70;;;;;;;20.16;72.84;97872.34;10329192;28;20416;-50
2023/08/15 19:00:25;;;;;;;22.50;15.30;;;;;;;20.00;73.68;97840.47;10325113;28;20116;-51
2023/08/15 19:05:25;;;;;;;16.67;14.80;;;;;;;20.01;74.35;97857.13;10327157;28;20028;-50
2023/08/15 19:10:24;;;;;;;18.38;14.48;;;;;;;19.95;74.49;97852.94;10325985;28;20060;-52
2023/08/15 19:15:23;;;;;;;18.90;15.45;;;;;;;19.86;75.17;97859.41;10322500;28;20065;-51
2023/08/15 19:20:23;;;;;;;18.70;15.32;;;;;;;19.79;76.09;97862.31;10326189;28;20033;-52
2023/08/15 19:25:23;;;;;;;17.17;15.38;;;;;;;19.53;77.47;97823.75;10324461;28;20100;-51
2023/08/15 19:30:23;;;;;;;18.30;15.40;;;;;;;19.43;77.50;97818.81;10323102;28;20124;-49
2023/08/15 19:35:22;;;;;;;20.23;17.55;;;;;;;19.64;78.04;97871.63;10326727;28;20061;-50
2023/08/15 19:40:21;;;;;;;20.70;18.10;;;;;;;19.47;78.65;97855.56;10330010;28;20032;-51
2023/08/15 19:45:20;;;;;;;23.77;17.42;;;;;;;19.53;78.49;97871.97;10326213;28;20821;-49
2023/08/15 19:50:19;;;;;;;18.95;15.88;;;;;;;19.28;79.16;97827.25;10329327;28;20056;-51
2023/08/15 19:55:18;;;;;;;17.02;15.30;;;;;;;19.41;80.43;97870.63;10330829;28;20040;-49
2023/08/15 20:00:17;;;;;;;18.15;15.07;;;;;;;19.32;80.72;97863.09;10324529;28;20472;-50
2023/08/15 20:05:16;;;;;;;18.27;16.02;;;;;;;19.28;80.91;97866.72;10328640;28;20057;-48
2023/08/15 20:10:15;;;;;;;18.50;15.60;;;;;;;19.24;80.73;97865.09;10324373;28;20041;-51
2023/08/15 20:15:14;;;;;;;22.02;18.00;;;;;;;19.12;82.19;97862.88;10324782;28;20099;-51
2023/08/15 20:20:13;;;;;;;20.83;18.30;;;;;;;19.11;83.12;97863.78;10327507;28;20108;-50
2023/08/15 20:25:12;;;;;;;19.00;16.48;;;;;;;19.01;84.14;97868.50;10324653;28;20043;-52
2023/08/15 20:30:11;;;;;;;21.60;17.90;;;;;;;18.97;83.63;97862.50;10324945;28;20107;-52
2023/08/15 20:35:10;;;;;;;20.55;17.58;;;;;;;18.95;84.07;97848.53;10323641;28;20821;-51
2023/08/15 20:40:10;;;;;;;20.65;17.27;;;;;;;18.85;83.97;97831.31;10324764;28;20654;-51
2023/08/15 20:45:13;;;;;;;19.73;17.48;;;;;;;18.95;83.66;97853.78;10323270;28;20068;-52
2023/08/15 20:50:12;;;;;;;20.88;16.63;;;;;;;18.95;83.58;97860.84;10325188;28;20064;-52
2023/08/15 20:55:13;;;;;;;19.63;17.13;;;;;;;18.92;83.75;97864.38;10322876;28;20056;-52
2023/08/15 21:00:13;;;;;;;21.65;18.67;;;;;;;18.88;84.20;97867.16;10322292;28;20156;-51
2023/08/15 21:05:14;;;;;;;19.85;17.35;;;;;;;18.82;84.76;97860.34;10322542;28;20064;-52
2023/08/15 21:10:13;;;;;;;18.55;16.55;;;;;;;18.83;84.04;97867.34;10323770;28;20124;-52
2023/08/15 21:15:12;;;;;;;22.52;16.88;;;;;;;18.74;84.06;97865.88;10322844;28;20025;-51
2023/08/15 21:20:11;;;;;;;18.98;16.90;;;;;;;18.71;84.07;97865.94;10322394;28;20025;-51
2023/08/15 21:25:10;;;;;;;19.50;17.45;;;;;;;18.69;84.30;97874.78;10323371;28;20124;-52
2023/08/15 21:30:10;;;;;;;24.55;17.90;;;;;;;18.68;84.05;97870.44;10321792;28;20108;-52
2023/08/15 21:35:09;;;;;;;18.10;16.25;;;;;;;18.57;83.86;97869.00;10323601;28;20061;-52
2023/08/15 21:40:08;;;;;;;18.95;16.52;;;;;;;18.54;83.91;97884.84;10323892;28;20041;-52
2023/08/15 21:45:08;;;;;;;20.60;16.73;;;;;;;18.53;84.24;97879.66;10320488;28;20056;-49
2023/08/15 21:50:07;;;;;;;25.73;19.73;;;;;;;18.54;84.71;97884.84;10325696;28;20052;-51
2023/08/15 21:55:06;;;;;;;24.48;18.88;;;;;;;18.40;85.35;97839.75;10319929;28;20061;-51
2023/08/15 22:00:06;;;;;;;18.73;16.70;;;;;;;18.49;85.26;97855.22;10322613;28;20061;-50
2023/08/15 22:05:05;;;;;;;19.60;17.40;;;;;;;18.14;85.29;97802.00;10322430;28;20133;-50
2023/08/15 22:10:06;;;;;;;19.80;17.67;;;;;;;18.52;85.18;97862.16;10325421;28;20072;-50
2023/08/15 22:15:05;;;;;;;19.92;16.95;;;;;;;18.40;85.36;97840.59;10319501;28;20124;-48
2023/08/15 22:20:05;;;;;;;20.00;17.85;;;;;;;18.43;85.06;97839.66;10320432;28;20459;-53
2023/08/15 22:25:05;;;;;;;22.25;18.90;;;;;;;18.29;85.32;97826.97;10321217;28;20068;-51
2023/08/15 22:30:06;;;;;;;24.20;18.02;;;;;;;18.32;85.25;97842.63;10320243;28;20112;-49
2023/08/15 22:35:06;;;;;;;19.85;17.85;;;;;;;18.19;86.03;97838.63;10321001;28;20138;-52
2023/08/15 22:40:05;;;;;;;36.40;24.38;;;;;;;18.17;86.11;97835.19;10323629;28;20104;-49
2023/08/15 22:45:05;;;;;;;28.17;22.58;;;;;;;18.16;86.15;97836.13;10321216;28;20429;-47
2023/08/15 22:50:04;;;;;;;24.67;21.35;;;;;;;18.07;87.08;97836.38;10319800;28;20061;-52